Pittsburgh, Pennsylvania
Traffic Map
Current Weather Conditions
Pittsburgh, Pennsylvania
Broken Clouds
Broken Clouds
34°
Feels Like: 28°
Wind Chill: 28° Ceiling: 8000
Heat Index: 34° Visibility: 10mi
Dew Point: 20° Wind: 7mph
Humidity: 56% Direction: 170° (S)
Pressure: 29.58in Gusts: 0mph
Raw Report DataKAGC 120553Z 17006KT 10SM BKN080 BKN120 01/M07 A2958 RMK AO2 SLP033 T00111067 10017 20006 56039
Traffic Incident Summary
Active as of:
Severity:
Category:
InformationThere was an issue retrieving the traffic information for this location. Please try a different location or try again shortly.
Advertisements